Time;durP1;ratioP1;P1;durP2;ratioP2;P2;SDS_P1;SDS_P2;PMS_P1;PMS_P2;Temp;Humidity;BMP_temperature;BMP_pressure;BME280_temperature;BME280_humidity;BME280_pressure;Samples;Min_cycle;Max_cycle;Signal;HPM_P1;HPM_P2
2022/08/24 00:01:27;;;;;;;5.03;2.40;;;20.20;55.50;;;;;;5052316;28;20440;-59
2022/08/24 00:03:56;;;;;;;3.33;2.23;;;20.10;55.60;;;;;;5052303;28;20451;-58
2022/08/24 00:06:24;;;;;;;10.60;3.30;;;20.10;55.80;;;;;;5052699;28;20480;-58
2022/08/24 00:08:54;;;;;;;7.43;2.70;;;20.10;55.90;;;;;;5052137;28;20445;-59
2022/08/24 00:11:22;;;;;;;4.00;2.10;;;20.00;56.00;;;;;;5052666;28;20547;-58
2022/08/24 00:13:51;;;;;;;2.87;1.93;;;20.00;56.20;;;;;;5052285;28;20531;-59
2022/08/24 00:16:19;;;;;;;2.60;1.90;;;20.00;56.30;;;;;;5052661;28;20566;-58
2022/08/24 00:18:48;;;;;;;6.80;2.07;;;19.90;56.40;;;;;;5052484;28;20523;-58
2022/08/24 00:21:15;;;;;;;3.60;2.30;;;19.90;56.70;;;;;;5052309;28;20444;-59
2022/08/24 00:23:44;;;;;;;3.50;2.10;;;19.80;56.80;;;;;;5052394;28;20555;-58
2022/08/24 00:26:11;;;;;;;5.67;3.00;;;19.80;56.90;;;;;;5055326;28;20471;-58
2022/08/24 00:28:38;;;;;;;5.70;3.30;;;19.80;57.10;;;;;;5056391;28;20531;-56
2022/08/24 00:31:07;;;;;;;2.40;2.20;;;19.80;57.20;;;;;;5057398;28;20530;-58
2022/08/24 00:33:34;;;;;;;3.50;2.37;;;19.70;57.40;;;;;;5056735;28;20889;-58
2022/08/24 00:36:02;;;;;;;2.60;1.60;;;19.70;57.50;;;;;;5056232;28;20574;-57
2022/08/24 00:38:30;;;;;;;4.17;2.20;;;19.70;57.70;;;;;;5048945;28;20518;-57
2022/08/24 00:40:57;;;;;;;4.90;2.40;;;19.70;57.90;;;;;;5056976;28;20531;-58
2022/08/24 00:43:26;;;;;;;4.03;2.47;;;19.60;58.00;;;;;;5056356;28;20482;-58
2022/08/24 00:46:04;;;;;;;2.53;2.20;;;19.60;58.20;;;;;;5056414;28;20496;-58
2022/08/24 00:48:35;;;;;;;3.00;2.37;;;19.50;58.30;;;;;;5056167;28;20435;-58
2022/08/24 00:51:06;;;;;;;3.10;2.00;;;19.50;58.50;;;;;;5056242;28;20549;-58
2022/08/24 00:53:37;;;;;;;2.93;2.17;;;19.50;58.60;;;;;;5055134;28;20472;-58
2022/08/24 00:56:10;;;;;;;3.60;2.30;;;19.50;58.80;;;;;;5056576;28;20483;-58
2022/08/24 00:58:40;;;;;;;5.00;2.13;;;19.50;59.00;;;;;;5056385;28;20523;-59
2022/08/24 01:01:10;;;;;;;4.47;2.40;;;19.40;59.00;;;;;;5056716;28;20455;-60
2022/08/24 01:03:38;;;;;;;2.20;2.00;;;19.40;59.20;;;;;;5055989;28;20877;-58
2022/08/24 01:06:06;;;;;;;3.40;2.40;;;19.40;59.30;;;;;;5056044;28;21066;-60
2022/08/24 01:08:34;;;;;;;2.73;2.00;;;19.40;59.50;;;;;;5056152;28;20450;-59
2022/08/24 01:11:04;;;;;;;8.43;2.67;;;19.30;59.70;;;;;;5056372;28;20874;-59
2022/08/24 01:13:33;;;;;;;2.80;2.00;;;19.30;59.80;;;;;;5056310;28;20440;-59
2022/08/24 01:16:03;;;;;;;2.93;1.97;;;19.30;60.00;;;;;;5055823;28;20515;-58
2022/08/24 01:18:48;;;;;;;3.40;2.03;;;19.30;60.20;;;;;;5056228;28;20523;-58
2022/08/24 01:21:19;;;;;;;3.77;2.17;;;19.20;60.30;;;;;;5055719;28;20432;-58
2022/08/24 01:23:51;;;;;;;3.40;2.43;;;19.20;60.50;;;;;;5055368;28;20463;-57
2022/08/24 01:26:23;;;;;;;3.40;2.20;;;19.20;60.70;;;;;;5055997;28;20506;-58
2022/08/24 01:28:56;;;;;;;4.30;2.57;;;19.20;60.80;;;;;;5057807;28;20810;-57
2022/08/24 01:31:24;;;;;;;5.13;2.60;;;19.20;61.00;;;;;;5066300;28;20445;-58
2022/08/24 01:33:53;;;;;;;3.13;1.87;;;19.20;61.20;;;;;;5046759;28;20534;-58
2022/08/24 01:36:26;;;;;;;3.23;2.93;;;19.10;61.30;;;;;;5056528;28;20564;-58
2022/08/24 01:38:57;;;;;;;2.53;2.17;;;19.10;61.60;;;;;;5055707;28;20440;-59
2022/08/24 01:41:24;;;;;;;5.87;3.63;;;19.10;61.70;;;;;;5043292;28;20474;-59
2022/08/24 01:43:52;;;;;;;8.43;2.23;;;19.00;61.80;;;;;;5055022;28;20547;-59
2022/08/24 01:46:19;;;;;;;3.20;2.07;;;19.00;62.10;;;;;;5055933;28;20546;-59
2022/08/24 01:48:46;;;;;;;2.73;2.20;;;19.00;62.40;;;;;;5055537;28;20493;-59
2022/08/24 01:51:14;;;;;;;3.20;2.10;;;18.90;62.60;;;;;;5055237;28;20534;-59
2022/08/24 01:53:41;;;;;;;5.10;2.30;;;18.90;62.80;;;;;;5055154;28;20531;-59
2022/08/24 01:56:09;;;;;;;3.50;2.03;;;18.80;62.90;;;;;;5055054;28;20575;-58
2022/08/24 01:58:42;;;;;;;3.30;2.30;;;18.80;63.20;;;;;;5054771;28;20535;-58
2022/08/24 02:01:10;;;;;;;3.30;2.20;;;18.80;63.40;;;;;;5054737;28;20535;-60
2022/08/24 02:03:37;;;;;;;5.57;2.50;;;18.80;63.70;;;;;;5055007;28;20472;-60
2022/08/24 02:06:04;;;;;;;2.50;2.00;;;18.80;63.90;;;;;;5055174;28;20555;-58
2022/08/24 02:08:35;;;;;;;2.40;2.20;;;18.70;64.10;;;;;;5054859;28;20940;-59
2022/08/24 02:11:03;;;;;;;3.90;2.50;;;18.70;64.30;;;;;;5055026;28;20486;-59
2022/08/24 02:13:32;;;;;;;3.17;2.37;;;18.70;64.50;;;;;;5057374;28;21007;-59
2022/08/24 02:15:59;;;;;;;4.77;2.13;;;18.70;64.70;;;;;;5061460;28;20483;-58
2022/08/24 02:18:30;;;;;;;3.40;2.37;;;18.70;65.00;;;;;;5054421;28;20455;-58
2022/08/24 02:20:57;;;;;;;4.90;2.20;;;18.70;65.20;;;;;;5054975;28;20448;-58
2022/08/24 02:23:24;;;;;;;7.93;2.77;;;18.70;65.40;;;;;;5054568;28;20504;-58
2022/08/24 02:25:52;;;;;;;4.73;2.70;;;18.70;65.50;;;;;;5054333;28;20556;-59
2022/08/24 02:28:19;;;;;;;4.50;2.27;;;18.70;65.80;;;;;;5054322;28;20437;-58
2022/08/24 02:30:48;;;;;;;4.73;2.37;;;18.60;65.90;;;;;;5054086;28;20459;-58
2022/08/24 02:33:15;;;;;;;2.57;2.17;;;18.60;66.20;;;;;;5054193;28;20447;-58
2022/08/24 02:35:43;;;;;;;4.90;2.40;;;18.60;66.40;;;;;;5053442;28;20476;-58
2022/08/24 02:38:10;;;;;;;3.57;2.40;;;18.60;66.60;;;;;;5053889;28;20535;-59
2022/08/24 02:40:38;;;;;;;2.23;2.00;;;18.60;66.90;;;;;;5054339;28;20894;-57
2022/08/24 02:43:05;;;;;;;3.50;2.47;;;18.60;67.20;;;;;;5053685;28;20444;-57
2022/08/24 02:45:33;;;;;;;4.90;2.47;;;18.50;67.40;;;;;;5054007;28;20495;-57
2022/08/24 02:48:01;;;;;;;11.23;3.17;;;18.50;67.70;;;;;;5053208;28;20450;-59
2022/08/24 02:50:28;;;;;;;5.23;2.57;;;18.50;68.00;;;;;;5053688;28;20440;-58
2022/08/24 02:52:55;;;;;;;5.20;2.80;;;18.50;68.20;;;;;;5054294;28;20963;-59
2022/08/24 02:55:23;;;;;;;5.37;2.67;;;18.40;68.40;;;;;;5053927;28;20479;-58
2022/08/24 02:57:50;;;;;;;5.53;2.30;;;18.40;68.70;;;;;;5054561;28;20889;-58
2022/08/24 03:00:20;;;;;;;2.63;2.37;;;18.30;68.80;;;;;;5054906;28;20905;-59
2022/08/24 03:02:47;;;;;;;3.93;2.40;;;18.30;69.20;;;;;;5053356;28;20514;-59
2022/08/24 03:05:16;;;;;;;4.53;2.57;;;18.30;69.60;;;;;;5052907;28;20543;-58
2022/08/24 03:07:43;;;;;;;4.30;2.70;;;18.20;69.80;;;;;;5053691;28;20509;-59
2022/08/24 03:10:10;;;;;;;5.07;2.33;;;18.20;70.30;;;;;;5053790;28;20449;-59
2022/08/24 03:12:38;;;;;;;4.83;2.90;;;18.20;70.60;;;;;;5054187;28;20551;-61
2022/08/24 03:15:09;;;;;;;4.77;2.53;;;18.20;71.00;;;;;;5052869;28;20531;-59
2022/08/24 03:17:37;;;;;;;5.50;3.43;;;18.10;71.20;;;;;;5053778;28;21027;-59
2022/08/24 03:20:09;;;;;;;4.03;2.43;;;18.10;71.60;;;;;;5042575;28;20444;-59
2022/08/24 03:22:38;;;;;;;4.07;2.60;;;18.10;71.90;;;;;;5053547;28;20449;-59
2022/08/24 03:25:06;;;;;;;6.03;2.80;;;18.10;72.30;;;;;;5052771;28;20535;-59
2022/08/24 03:27:33;;;;;;;2.80;2.60;;;18.00;72.50;;;;;;5053456;28;21011;-59
2022/08/24 03:30:01;;;;;;;2.97;2.77;;;18.00;72.90;;;;;;5053380;28;20562;-57
2022/08/24 03:32:28;;;;;;;4.50;3.10;;;18.00;73.40;;;;;;5053486;28;20455;-58
2022/08/24 03:34:55;;;;;;;5.97;2.90;;;18.00;73.80;;;;;;5052232;28;20453;-59
2022/08/24 03:37:22;;;;;;;3.33;2.70;;;18.00;74.30;;;;;;5053164;28;20563;-60
2022/08/24 03:39:51;;;;;;;4.50;2.83;;;18.00;74.70;;;;;;5053854;28;20626;-59
2022/08/24 03:42:18;;;;;;;3.83;3.07;;;17.90;74.80;;;;;;5053872;28;20444;-59
2022/08/24 03:44:46;;;;;;;3.90;3.17;;;17.90;75.30;;;;;;5053050;28;20948;-59
2022/08/24 03:47:13;;;;;;;3.33;3.03;;;17.80;75.70;;;;;;5054766;28;20563;-58
2022/08/24 03:49:40;;;;;;;3.33;3.03;;;17.80;76.00;;;;;;5052665;28;20539;-58
2022/08/24 03:52:08;;;;;;;6.87;3.27;;;17.80;76.30;;;;;;5053480;28;20458;-59
2022/08/24 03:54:35;;;;;;;6.50;3.70;;;17.80;76.70;;;;;;5053955;28;20480;-58
2022/08/24 03:57:04;;;;;;;3.40;2.73;;;17.80;77.10;;;;;;5053001;28;20479;-58
2022/08/24 03:59:31;;;;;;;4.03;2.70;;;17.70;77.40;;;;;;5052685;28;20646;-58
2022/08/24 04:01:59;;;;;;;6.13;3.30;;;17.70;77.70;;;;;;5052872;28;20452;-58
2022/08/24 04:04:26;;;;;;;4.83;3.10;;;17.70;78.00;;;;;;5052296;28;20539;-58
2022/08/24 04:10:10;;;;;;;6.50;2.90;;;17.70;78.20;;;;;;5111812;27;20531;-58
2022/08/24 04:12:37;;;;;;;4.73;2.80;;;17.70;78.80;;;;;;5111105;28;20481;-58
2022/08/24 04:15:05;;;;;;;5.73;3.50;;;17.70;79.10;;;;;;5110800;28;20544;-58
2022/08/24 04:17:33;;;;;;;4.20;3.13;;;17.70;79.30;;;;;;5110708;28;20536;-59
2022/08/24 04:20:00;;;;;;;4.03;2.90;;;17.70;80.20;;;;;;5110625;28;20520;-58
2022/08/24 04:22:31;;;;;;;6.00;3.40;;;17.70;79.70;;;;;;5110209;28;20507;-57
2022/08/24 04:24:58;;;;;;;5.97;3.03;;;17.70;79.80;;;;;;5098263;28;20439;-58
2022/08/24 04:27:27;;;;;;;5.07;3.40;;;17.70;80.10;;;;;;5089921;28;20538;-58
2022/08/24 04:29:54;;;;;;;5.40;2.80;;;17.80;80.20;;;;;;5109844;28;20923;-59
2022/08/24 04:32:22;;;;;;;8.43;2.97;;;17.80;80.40;;;;;;5110550;28;20531;-58
2022/08/24 04:34:49;;;;;;;5.40;2.90;;;17.80;80.40;;;;;;5102845;28;20528;-60
2022/08/24 04:37:16;;;;;;;8.17;3.73;;;17.90;80.40;;;;;;5091242;28;20541;-58
2022/08/24 04:39:44;;;;;;;4.53;3.30;;;18.00;80.30;;;;;;5107272;28;20465;-59
2022/08/24 04:42:11;;;;;;;5.73;3.40;;;18.10;80.10;;;;;;5110612;28;20528;-58
2022/08/24 04:44:40;;;;;;;3.40;2.60;;;18.20;80.00;;;;;;5100523;28;20439;-58
2022/08/24 04:47:08;;;;;;;5.53;3.10;;;18.30;79.80;;;;;;5089957;28;20839;-57
2022/08/24 04:49:36;;;;;;;4.07;2.83;;;18.30;79.40;;;;;;5102677;28;20579;-58
2022/08/24 04:52:03;;;;;;;5.70;4.63;;;18.40;79.10;;;;;;5109795;28;20446;-59
2022/08/24 04:54:31;;;;;;;4.43;3.17;;;18.50;78.80;;;;;;5098846;28;20454;-58
2022/08/24 04:56:58;;;;;;;4.03;2.70;;;18.60;78.50;;;;;;5090664;28;20473;-58
2022/08/24 04:59:25;;;;;;;6.00;3.40;;;18.70;78.20;;;;;;5108773;28;20537;-59
2022/08/24 05:01:54;;;;;;;4.30;2.90;;;18.80;77.80;;;;;;5101358;28;21013;-58
2022/08/24 05:04:21;;;;;;;9.70;3.00;;;18.90;77.30;;;;;;5094531;28;20894;-58
2022/08/24 05:06:49;;;;;;;4.37;3.00;;;19.00;77.00;;;;;;5108981;28;20528;-56
2022/08/24 05:09:16;;;;;;;4.23;3.03;;;19.10;76.60;;;;;;5109111;28;20596;-58
2022/08/24 05:11:44;;;;;;;6.03;3.13;;;19.10;76.30;;;;;;5090096;28;20470;-57
2022/08/24 05:14:12;;;;;;;10.80;3.70;;;19.20;76.10;;;;;;5092715;28;20449;-58
2022/08/24 05:16:39;;;;;;;9.77;3.30;;;19.30;75.80;;;;;;5109534;28;20472;-58
2022/08/24 05:19:08;;;;;;;6.70;3.40;;;19.40;75.40;;;;;;5109805;28;21013;-58
2022/08/24 05:21:35;;;;;;;7.87;2.87;;;19.50;75.10;;;;;;5095684;28;20546;-57
2022/08/24 05:24:02;;;;;;;5.90;2.73;;;19.60;74.70;;;;;;5093952;28;20472;-57
2022/08/24 05:26:30;;;;;;;8.30;3.20;;;19.70;74.30;;;;;;5077758;28;20603;-58
2022/08/24 05:28:59;;;;;;;6.80;3.07;;;19.80;73.70;;;;;;5076274;28;20641;-57
2022/08/24 05:31:28;;;;;;;4.50;3.43;;;19.70;73.20;;;;;;5075565;28;20457;-57
2022/08/24 05:33:56;;;;;;;6.67;3.00;;;19.70;73.20;;;;;;5076565;28;20526;-59
2022/08/24 05:36:27;;;;;;;4.87;3.20;;;19.60;73.00;;;;;;5089079;28;20470;-58
2022/08/24 05:38:57;;;;;;;9.90;3.50;;;19.60;73.10;;;;;;5075014;28;20969;-58
2022/08/24 05:41:25;;;;;;;6.33;3.40;;;19.50;73.20;;;;;;5086761;28;20881;-58
2022/08/24 05:43:52;;;;;;;7.80;3.17;;;19.50;73.20;;;;;;5093248;28;20442;-58
2022/08/24 05:46:20;;;;;;;4.60;3.43;;;19.50;73.40;;;;;;5075279;28;20499;-57
2022/08/24 05:48:47;;;;;;;5.40;3.40;;;19.50;73.30;;;;;;5075659;28;20510;-58
2022/08/24 05:51:16;;;;;;;8.00;3.70;;;19.60;73.40;;;;;;5092709;28;20797;-58
2022/08/24 05:53:45;;;;;;;7.83;4.13;;;19.60;74.00;;;;;;5092823;28;20478;-58
2022/08/24 05:56:14;;;;;;;5.57;3.13;;;19.70;73.20;;;;;;5089844;28;20575;-57
2022/08/24 05:58:42;;;;;;;5.60;3.57;;;19.70;73.00;;;;;;5091290;28;20517;-58
2022/08/24 06:01:10;;;;;;;7.37;3.63;;;19.80;72.80;;;;;;5075777;28;20443;-59
2022/08/24 06:03:38;;;;;;;5.03;3.93;;;19.80;72.70;;;;;;5074830;28;20450;-57
2022/08/24 06:06:07;;;;;;;6.53;3.50;;;19.90;72.50;;;;;;5074542;28;20463;-57
2022/08/24 06:08:35;;;;;;;4.80;2.90;;;20.00;72.50;;;;;;5074339;28;20463;-58
2022/08/24 06:11:04;;;;;;;9.63;3.93;;;20.10;72.30;;;;;;5074045;28;20561;-58
2022/08/24 06:13:32;;;;;;;5.00;3.20;;;20.20;72.10;;;;;;5074150;28;20475;-57
2022/08/24 06:16:04;;;;;;;3.97;3.57;;;20.20;71.90;;;;;;5076415;28;20554;-58
2022/08/24 06:18:32;;;;;;;6.00;3.87;;;20.30;71.70;;;;;;5089539;28;20487;-57
2022/08/24 06:21:03;;;;;;;6.50;3.00;;;20.40;71.60;;;;;;5084942;28;20474;-59
2022/08/24 06:23:30;;;;;;;4.20;2.93;;;20.50;71.40;;;;;;5074227;28;20431;-57
2022/08/24 06:28:45;;;;;;;6.00;3.93;;;20.70;71.10;;;;;;5074807;28;20558;-59
2022/08/24 06:31:12;;;;;;;6.77;3.90;;;20.90;70.50;;;;;;5074931;28;20937;-57
2022/08/24 06:33:39;;;;;;;4.80;3.53;;;21.00;70.10;;;;;;5073690;28;20539;-58
2022/08/24 06:36:07;;;;;;;5.33;3.30;;;21.20;69.80;;;;;;5074916;28;20896;-57
2022/08/24 06:38:35;;;;;;;8.03;3.67;;;21.20;69.40;;;;;;5074032;28;20507;-57
2022/08/24 06:41:02;;;;;;;7.13;3.93;;;21.40;69.00;;;;;;5073789;28;20958;-58
2022/08/24 06:43:29;;;;;;;5.90;3.43;;;21.50;68.70;;;;;;5074045;28;20495;-57
2022/08/24 06:45:58;;;;;;;9.50;3.53;;;21.60;68.40;;;;;;5073931;28;20896;-57
2022/08/24 06:48:27;;;;;;;3.23;2.93;;;21.70;68.10;;;;;;5073635;28;20544;-58
2022/08/24 06:50:54;;;;;;;6.17;3.20;;;21.80;67.70;;;;;;5073918;28;20975;-57
2022/08/24 06:53:22;;;;;;;6.07;3.43;;;22.00;67.30;;;;;;5080220;28;20559;-58
2022/08/24 06:55:50;;;;;;;5.20;3.23;;;22.10;66.90;;;;;;5094297;28;20903;-57
2022/08/24 06:58:18;;;;;;;7.87;3.33;;;22.20;66.50;;;;;;5094277;28;20454;-60
2022/08/24 07:00:46;;;;;;;4.83;2.80;;;22.30;66.20;;;;;;5094229;28;20477;-57
2022/08/24 07:03:15;;;;;;;4.53;2.60;;;22.40;65.90;;;;;;5097337;28;20449;-58
2022/08/24 07:05:50;;;;;;;4.73;3.70;;;22.50;65.40;;;;;;5100793;28;20556;-58
2022/08/24 07:08:17;;;;;;;8.47;3.40;;;22.70;65.00;;;;;;5094280;28;20465;-58
2022/08/24 07:10:44;;;;;;;6.27;3.20;;;22.80;64.50;;;;;;5093186;28;20580;-57
2022/08/24 07:13:13;;;;;;;6.10;3.60;;;22.90;64.10;;;;;;5093504;28;20484;-57
2022/08/24 07:15:40;;;;;;;4.43;2.83;;;23.00;63.60;;;;;;5092338;28;20469;-58
2022/08/24 07:18:09;;;;;;;3.90;3.30;;;23.10;63.20;;;;;;5082066;28;20962;-59
2022/08/24 07:20:37;;;;;;;4.37;3.40;;;23.30;62.80;;;;;;5093982;28;20448;-59
2022/08/24 07:23:06;;;;;;;3.53;3.23;;;23.40;62.30;;;;;;5094047;28;20447;-58
2022/08/24 07:25:33;;;;;;;3.63;3.00;;;23.50;62.00;;;;;;5093750;28;20470;-58
2022/08/24 07:28:01;;;;;;;4.10;3.50;;;23.60;61.50;;;;;;5092756;28;20529;-59
2022/08/24 07:30:29;;;;;;;4.83;3.27;;;23.70;61.10;;;;;;5093236;28;20478;-58
2022/08/24 07:32:57;;;;;;;3.33;2.57;;;23.80;60.70;;;;;;5093366;28;20465;-58
2022/08/24 07:35:25;;;;;;;3.97;3.17;;;23.90;60.20;;;;;;5093629;28;20459;-59
2022/08/24 07:37:55;;;;;;;3.90;2.77;;;24.00;59.80;;;;;;5093419;28;20452;-58
2022/08/24 07:40:22;;;;;;;3.23;2.90;;;24.20;60.10;;;;;;5093199;28;20526;-59
2022/08/24 07:42:52;;;;;;;4.27;2.70;;;24.40;59.10;;;;;;5085358;28;20468;-58
2022/08/24 07:45:21;;;;;;;2.87;2.57;;;24.40;58.60;;;;;;5093277;28;20470;-59
2022/08/24 07:47:48;;;;;;;4.97;3.30;;;24.50;58.20;;;;;;5093313;28;20458;-59
2022/08/24 07:50:17;;;;;;;6.00;3.30;;;24.70;57.90;;;;;;5093112;28;20476;-58
2022/08/24 07:52:45;;;;;;;4.80;3.07;;;24.80;57.50;;;;;;5079018;28;20905;-57
2022/08/24 07:55:14;;;;;;;5.20;3.33;;;24.90;57.00;;;;;;5073829;28;20521;-59
2022/08/24 07:57:43;;;;;;;3.27;2.97;;;25.10;56.60;;;;;;5093048;28;20492;-59
2022/08/24 08:00:14;;;;;;;7.97;3.37;;;25.20;56.00;;;;;;5092356;28;20491;-58
2022/08/24 08:02:45;;;;;;;5.00;2.73;;;25.30;55.60;;;;;;5072785;28;20447;-59
2022/08/24 08:05:12;;;;;;;4.60;2.90;;;25.50;55.40;;;;;;5073212;28;20479;-58
2022/08/24 08:07:39;;;;;;;3.53;2.87;;;25.60;54.90;;;;;;5073035;28;20448;-59
2022/08/24 08:10:08;;;;;;;6.70;2.77;;;25.60;54.40;;;;;;5073150;28;20485;-58
2022/08/24 08:12:37;;;;;;;5.40;2.80;;;25.70;54.30;;;;;;5072882;28;20451;-58
2022/08/24 08:15:08;;;;;;;5.50;3.10;;;25.80;54.00;;;;;;5072702;28;20452;-59
2022/08/24 08:17:36;;;;;;;2.90;2.60;;;25.90;53.60;;;;;;5072670;28;20444;-58
2022/08/24 08:20:04;;;;;;;5.63;3.20;;;26.10;53.20;;;;;;5072737;28;20443;-58
2022/08/24 08:25:18;;;;;;;4.23;2.80;;;26.30;52.40;;;;;;5093017;28;20495;-59
2022/08/24 08:27:46;;;;;;;4.73;2.83;;;26.40;52.10;;;;;;5086866;28;20483;-61
2022/08/24 08:30:14;;;;;;;5.47;2.90;;;26.60;51.70;;;;;;5077038;28;21009;-59
2022/08/24 08:32:41;;;;;;;3.77;2.60;;;26.70;51.20;;;;;;5074668;28;20450;-59
2022/08/24 08:35:09;;;;;;;4.60;2.93;;;26.70;50.80;;;;;;5088270;28;20504;-59
2022/08/24 08:37:37;;;;;;;3.63;2.63;;;26.90;50.50;;;;;;5093935;28;20475;-59
2022/08/24 08:40:08;;;;;;;3.27;2.67;;;27.00;50.10;;;;;;5092964;28;20835;-59
2022/08/24 08:43:13;;;;;;;4.17;2.73;;;27.00;49.80;;;;;;5093285;28;20435;-59
2022/08/24 08:46:00;;;;;;;3.67;2.80;;;27.10;49.60;;;;;;5025914;28;21013;-60
2022/08/24 08:49:19;;;;;;;3.13;2.67;;;27.20;49.30;;;;;;5011479;28;20473;-60
2022/08/24 08:52:23;;;;;;;6.53;2.90;;;27.40;48.90;;;;;;5048684;28;20530;-60
2022/08/24 08:55:11;;;;;;;3.97;3.60;;;27.50;48.30;;;;;;5054292;28;20444;-59
2022/08/24 08:57:51;;;;;;;5.23;2.70;;;27.60;48.00;;;;;;5076170;28;20475;-58
2022/08/24 09:00:22;;;;;;;4.50;3.20;;;27.60;47.70;;;;;;5075983;28;20427;-60
2022/08/24 09:03:40;;;;;;;6.20;2.70;;;27.60;47.60;;;;;;5076365;28;20511;-59
2022/08/24 09:06:33;;;;;;;3.87;2.67;;;27.70;47.20;;;;;;5033538;28;20472;-60
2022/08/24 09:09:30;;;;;;;4.63;2.77;;;27.90;46.90;;;;;;5034881;28;20994;-61
2022/08/24 09:12:08;;;;;;;2.90;2.57;;;28.00;46.50;;;;;;5052910;28;20547;-59
2022/08/24 09:15:17;;;;;;;4.47;2.50;;;28.10;46.20;;;;;;5096398;28;20460;-59
2022/08/24 09:18:05;;;;;;;3.73;2.40;;;28.10;45.70;;;;;;5075953;28;20552;-60
2022/08/24 09:21:03;;;;;;;3.63;2.60;;;28.20;45.40;;;;;;5076245;28;20420;-60
2022/08/24 09:23:39;;;;;;;5.27;2.73;;;28.30;44.90;;;;;;5075435;28;20432;-61
2022/08/24 09:26:15;;;;;;;2.60;2.40;;;28.40;44.60;;;;;;5075482;28;20550;-60
2022/08/24 09:28:44;;;;;;;4.13;2.30;;;28.50;44.20;;;;;;5075693;28;20424;-61
2022/08/24 09:31:38;;;;;;;4.10;3.00;;;28.60;44.00;;;;;;5094928;28;20478;-61
2022/08/24 09:34:26;;;;;;;3.77;2.10;;;28.60;43.70;;;;;;5096319;28;20456;-62
2022/08/24 09:36:58;;;;;;;4.67;2.80;;;28.70;43.70;;;;;;5091566;28;20498;-59
2022/08/24 09:39:55;;;;;;;5.57;2.77;;;28.70;43.60;;;;;;5086638;28;20438;-61
2022/08/24 09:42:53;;;;;;;4.33;2.70;;;28.70;43.40;;;;;;5075491;28;20481;-60
2022/08/24 09:45:47;;;;;;;2.70;2.37;;;28.70;43.30;;;;;;5075072;28;20536;-60
2022/08/24 09:48:53;;;;;;;4.17;2.30;;;28.80;43.10;;;;;;5075008;28;20436;-60
2022/08/24 09:52:00;;;;;;;3.63;2.50;;;28.90;43.00;;;;;;5056776;28;20487;-61
2022/08/24 09:54:57;;;;;;;4.30;2.70;;;28.90;42.90;;;;;;5074772;28;20456;-60
2022/08/24 09:57:38;;;;;;;3.00;2.70;;;29.00;42.90;;;;;;5077533;28;20540;-60
2022/08/24 10:00:12;;;;;;;3.77;2.20;;;29.20;42.60;;;;;;5075080;28;20469;-60
2022/08/24 10:03:08;;;;;;;3.03;2.10;;;29.40;42.30;;;;;;5074680;28;20440;-59
2022/08/24 10:06:07;;;;;;;3.53;2.47;;;29.50;41.90;;;;;;5072865;28;20566;-60
2022/08/24 10:09:03;;;;;;;3.70;2.50;;;29.50;41.90;;;;;;5074430;28;20465;-61
2022/08/24 10:11:41;;;;;;;6.30;2.80;;;29.50;41.80;;;;;;5074315;28;20486;-60
2022/08/24 10:14:19;;;;;;;5.37;2.90;;;29.60;41.60;;;;;;5074173;28;20437;-60
2022/08/24 10:16:58;;;;;;;4.83;2.37;;;29.60;41.30;;;;;;5074343;28;20497;-60
2022/08/24 10:19:49;;;;;;;5.63;2.60;;;29.60;41.00;;;;;;5075356;28;20539;-60
2022/08/24 10:22:28;;;;;;;5.63;2.50;;;29.60;40.80;;;;;;5074172;28;20506;-60
2022/08/24 10:25:10;;;;;;;3.50;1.90;;;29.60;40.40;;;;;;5074060;28;20431;-61
2022/08/24 10:27:49;;;;;;;4.43;2.70;;;29.50;39.80;;;;;;5083339;28;20433;-60
2022/08/24 10:30:49;;;;;;;5.50;2.70;;;29.50;39.80;;;;;;5093886;28;20555;-59
2022/08/24 10:33:21;;;;;;;3.17;2.77;;;29.60;39.50;;;;;;5094185;28;20434;-60
2022/08/24 10:36:03;;;;;;;2.73;2.37;;;29.60;39.00;;;;;;5093736;28;20683;-62
2022/08/24 10:41:59;;;;;;;7.80;3.90;;;29.50;39.00;;;;;;5033307;28;21014;-62
2022/08/24 10:44:45;;;;;;;5.90;2.40;;;29.60;38.90;;;;;;5033746;28;20522;-62
2022/08/24 10:47:21;;;;;;;5.23;2.30;;;29.70;38.70;;;;;;5014004;28;20465;-59
2022/08/24 10:50:36;;;;;;;4.33;2.77;;;29.80;38.40;;;;;;5025630;28;20449;-62
2022/08/24 10:53:26;;;;;;;6.27;2.40;;;30.00;37.60;;;;;;5023494;28;20554;-61
2022/08/24 10:56:10;;;;;;;4.60;2.37;;;30.00;37.90;;;;;;5033503;28;20461;-57
2022/08/24 10:59:08;;;;;;;3.43;2.10;;;30.00;37.30;;;;;;5033365;28;20557;-57
2022/08/24 11:01:37;;;;;;;8.93;3.67;;;30.10;37.40;;;;;;5033338;28;20514;-56
2022/08/24 11:04:08;;;;;;;3.20;2.07;;;30.10;37.30;;;;;;5033461;28;21076;-58
2022/08/24 11:06:38;;;;;;;5.40;2.20;;;30.30;37.00;;;;;;5032943;28;20435;-58
2022/08/24 11:09:09;;;;;;;3.93;3.17;;;30.40;37.00;;;;;;5033110;28;20433;-58
2022/08/24 11:11:38;;;;;;;2.33;2.10;;;30.50;36.90;;;;;;5032850;28;20568;-58
2022/08/24 11:14:10;;;;;;;2.77;2.27;;;30.60;36.90;;;;;;5033837;28;20828;-57
2022/08/24 11:16:40;;;;;;;5.20;2.83;;;30.60;36.70;;;;;;5033584;28;20439;-57
2022/08/24 11:19:11;;;;;;;3.80;2.13;;;30.60;36.60;;;;;;5032882;28;20949;-58
2022/08/24 11:21:46;;;;;;;2.53;1.80;;;30.60;36.70;;;;;;5033389;28;20479;-57
2022/08/24 11:24:29;;;;;;;3.80;2.20;;;30.70;36.60;;;;;;5034065;28;20432;-58
2022/08/24 11:26:59;;;;;;;6.40;2.00;;;30.90;36.10;;;;;;5034033;28;20555;-57
2022/08/24 11:29:57;;;;;;;2.30;2.10;;;30.90;35.50;;;;;;5033859;28;20447;-57
2022/08/24 11:32:31;;;;;;;3.93;2.00;;;30.80;35.50;;;;;;5033357;28;20959;-56
2022/08/24 11:35:04;;;;;;;2.30;2.00;;;30.90;35.50;;;;;;5033587;28;20726;-56
2022/08/24 11:37:33;;;;;;;7.40;2.33;;;30.90;35.20;;;;;;5033490;28;20510;-56
2022/08/24 11:40:03;;;;;;;7.03;2.93;;;30.90;35.10;;;;;;5032892;28;20461;-57
2022/08/24 11:42:59;;;;;;;4.17;2.20;;;30.90;35.20;;;;;;5032766;28;20451;-58
2022/08/24 11:45:37;;;;;;;3.60;2.10;;;31.00;35.10;;;;;;5035944;28;20441;-58
2022/08/24 11:48:27;;;;;;;3.67;2.73;;;31.00;34.70;;;;;;5052736;28;20470;-58
2022/08/24 11:50:59;;;;;;;5.17;2.27;;;31.10;34.40;;;;;;5046774;28;20547;-59
2022/08/24 11:53:38;;;;;;;4.83;2.30;;;31.70;34.20;;;;;;5043374;28;20527;-57
2022/08/24 11:56:15;;;;;;;2.60;2.40;;;32.30;33.50;;;;;;5046438;28;20482;-58
2022/08/24 11:58:51;;;;;;;3.10;2.13;;;32.70;32.90;;;;;;5032490;28;20472;-58
2022/08/24 12:01:26;;;;;;;3.50;2.50;;;33.10;32.50;;;;;;5019816;28;20435;-58
2022/08/24 12:04:15;;;;;;;3.13;2.53;;;33.50;32.30;;;;;;5033226;28;20430;-58
2022/08/24 12:06:55;;;;;;;7.80;2.77;;;33.90;31.80;;;;;;5032738;28;20465;-59
2022/08/24 12:09:37;;;;;;;3.07;2.23;;;34.00;31.20;;;;;;5033078;28;20523;-59
2022/08/24 12:12:16;;;;;;;4.20;2.43;;;34.00;31.00;;;;;;5032428;28;20574;-59
2022/08/24 12:14:50;;;;;;;5.87;2.40;;;34.00;31.00;;;;;;5033016;28;20445;-58
2022/08/24 12:17:24;;;;;;;4.43;2.30;;;34.20;30.90;;;;;;5032872;28;21045;-58
2022/08/24 12:19:55;;;;;;;2.60;2.20;;;34.30;30.30;;;;;;5013479;28;20877;-58
2022/08/24 12:22:23;;;;;;;6.63;2.80;;;34.40;30.10;;;;;;5013284;28;20426;-58
2022/08/24 12:24:54;;;;;;;5.50;2.57;;;34.20;30.10;;;;;;5017556;28;20514;-59
2022/08/24 12:27:25;;;;;;;10.23;2.63;;;33.80;30.10;;;;;;5032710;28;20570;-59
2022/08/24 12:29:59;;;;;;;2.50;2.10;;;33.40;30.50;;;;;;5033063;28;20543;-59
2022/08/24 12:32:36;;;;;;;4.50;2.40;;;33.00;31.00;;;;;;5037165;28;20468;-59
2022/08/24 12:35:09;;;;;;;4.70;2.53;;;32.70;31.50;;;;;;5038147;28;20443;-60
2022/08/24 12:37:40;;;;;;;4.80;2.93;;;32.50;31.90;;;;;;5037103;28;20487;-57
2022/08/24 12:40:22;;;;;;;4.33;1.90;;;32.30;32.10;;;;;;5036606;28;20524;-58
2022/08/24 12:42:51;;;;;;;3.60;2.50;;;32.20;32.30;;;;;;5037086;28;20479;-58
2022/08/24 12:45:20;;;;;;;5.03;2.53;;;32.10;32.30;;;;;;5036679;28;20505;-60
2022/08/24 12:47:55;;;;;;;5.30;2.90;;;32.00;32.20;;;;;;5036504;28;20636;-57
2022/08/24 12:50:29;;;;;;;3.53;2.87;;;32.00;32.20;;;;;;5036397;28;20970;-59
2022/08/24 12:53:24;;;;;;;4.90;3.20;;;32.00;32.10;;;;;;5036060;28;20533;-60
2022/08/24 12:56:36;;;;;;;6.30;2.50;;;32.00;32.10;;;;;;5036216;28;20515;-59
2022/08/24 12:59:12;;;;;;;2.70;1.90;;;32.10;32.10;;;;;;5036338;28;20431;-60
2022/08/24 13:01:44;;;;;;;5.37;2.70;;;32.10;31.90;;;;;;5035620;28;20434;-58
2022/08/24 13:04:36;;;;;;;4.90;2.80;;;32.10;32.00;;;;;;5035962;28;20439;-59
2022/08/24 13:07:07;;;;;;;3.13;2.40;;;32.00;32.00;;;;;;5035044;28;20502;-58
2022/08/24 13:09:38;;;;;;;2.90;2.10;;;32.00;31.90;;;;;;5048491;28;20442;-58
2022/08/24 13:12:40;;;;;;;4.93;2.27;;;31.80;32.00;;;;;;5055806;28;20565;-58
2022/08/24 13:15:25;;;;;;;3.97;2.20;;;31.80;32.30;;;;;;5014557;28;20464;-56
2022/08/24 13:17:55;;;;;;;2.83;2.53;;;31.80;32.30;;;;;;5020813;28;20466;-56
2022/08/24 13:20:28;;;;;;;2.70;2.07;;;31.80;32.20;;;;;;5036254;28;20524;-56
2022/08/24 13:23:06;;;;;;;3.70;2.20;;;31.90;32.10;;;;;;5036028;28;20436;-57
2022/08/24 13:25:55;;;;;;;7.53;2.40;;;31.80;32.10;;;;;;5035462;28;20867;-57
2022/08/24 13:28:39;;;;;;;3.53;2.07;;;31.80;32.00;;;;;;5015767;28;20984;-61